• Join FlightAware (Why Join?)
  • Login
  • US Flag 
12:15AM EDT


 

Airport Tracker/Info


-or-


 

Live Flight TrackerFlight Track Log ✈ SWA3678 ✈ 11-May-2013 ✈ KALB - KFLL

Flight Track Log - Related Links

Times and Time Zones

All times are in EDT time to prevent confusion due to time zone crossing. See the SWA3678 flight status page for this flight to view local times or setup timezone preferences in your user account.

Time Position Orientation Groundspeed Altitude Reporting Facility
EDT Latitude Longitude Course Direction KTS MPH feet Rate Location/Type
01:21PM 42.7006 -73.8103 183° South 165 190 2,900  Level Boston Center
01:23PM 42.7456 -73.8792 312° West 215 247 8,000 3,420 Climbing Boston Center
01:24PM 42.7908 -73.9311 320° Northwest 215 247 11,200 3,300 Climbing Boston Center
01:25PM 42.8169 -74.0081 295° West 209 241 14,700 3,060 Climbing Boston Center
01:26PM 42.8389 -74.0767 294° West 220 253 17,400 3,000 Climbing Boston Center
01:27PM 42.8067 -74.1325 232° Southwest 172 198 20,700 2,280 Climbing Boston Center
01:28PM 42.7303 -74.0908 158° South 189 217 22,000 1,320 Climbing Boston Center
01:29PM 42.6372 -74.0403 158° South 261 300 23,400 1,800 Climbing Boston Center
01:30PM 42.5333 -74.0181 171° South 338 389 25,700 2,100 Climbing Boston Center
01:31PM 42.4228 -74.0236 182° South 378 435 27,700 1,980 Climbing Boston Center
01:32PM 42.3158 -74.0603 194° South 389 448 29,700 2,220 Climbing Boston Center
01:33PM 42.2069 -74.0994 195° South 394 453 32,200 2,520 Climbing Boston Center
01:34PM 42.1042 -74.1358 195° South 394 453 34,800 2,100 Climbing Boston Center
01:35PM 42.0017 -74.1750 196° South 389 448 36,500 1,260 Climbing Boston Center
01:36PM 41.8081 -74.2411 194° South 392 451 38,400 1,140 Climbing New York Center
01:37PM 41.7008 -74.2800 195° South 404 465 39,800 780 Climbing New York Center
01:38PM 41.5914 -74.3158 194° South 404 465 40,000 60 Climbing New York Center
01:39PM 41.4903 -74.3547 196° South 397 457 40,000  Level New York Center
01:40PM 41.3831 -74.3933 195° South 397 457 40,000  Level New York Center
01:41PM 41.2864 -74.4239 193° South 403 464 40,000  Level New York Center
01:42PM 41.1808 -74.4622 195° South 403 464 40,000  Level New York Center
01:43PM 41.0756 -74.4978 194° South 403 464 40,000  Level New York Center
01:44PM 40.9703 -74.5361 195° South 403 464 40,000  Level New York Center
01:45PM 40.8650 -74.5742 195° South 403 464 40,000  Level New York Center
01:46PM 40.7553 -74.6144 196° South 403 464 40,000  Level New York Center
01:47PM 40.6478 -74.6522 195° South 403 464 40,000  Level New York Center
01:48PM 40.5403 -74.6872 194° South 403 464 40,000  Level New York Center
01:49PM 40.4306 -74.7272 196° South 403 464 40,000  Level New York Center
01:52PM 40.1756 -74.8150 195° South 395 455 40,000  Level Washington Center
01:53PM 40.0694 -74.8514 195° South 395 455 40,000  Level Washington Center
01:54PM 39.9636 -74.8878 195° South 395 455 40,000  Level Washington Center
01:55PM 39.8575 -74.9211 194° South 395 455 40,000  Level Washington Center
01:56PM 39.7619 -74.9544 195° South 395 455 40,000  Level Washington Center
01:57PM 39.6475 -74.9958 196° South 395 455 40,000  Level Washington Center
01:58PM 39.5497 -75.0292 195° South 401 461 40,000  Level Washington Center
01:59PM 39.4436 -75.0647 195° South 396 456 40,000  Level Washington Center
02:00PM 39.3417 -75.1006 195° South 396 456 40,000  Level Washington Center
02:01PM 39.2397 -75.1386 196° South 391 450 40,000  Level Washington Center
02:02PM 39.1397 -75.1822 199° South 386 444 40,000  Level Washington Center
02:03PM 39.0356 -75.2228 197° South 386 444 40,000  Level Washington Center
02:04PM 38.9358 -75.2633 198° South 386 444 40,000  Level Washington Center
02:05PM 38.8336 -75.3092 199° South 386 444 40,000  Level Washington Center
02:06PM 38.7339 -75.3547 200° South 386 444 40,000  Level Washington Center
02:07PM 38.6294 -75.3922 196° South 386 444 40,000  Level Washington Center
02:08PM 38.5294 -75.4350 199° South 386 444 40,000  Level Washington Center
02:09PM 38.4275 -75.4778 198° South 386 444 40,000  Level Washington Center
02:10PM 38.3253 -75.5228 199° South 386 444 40,000  Level Washington Center
02:11PM 38.2189 -75.5628 196° South 391 450 40,000  Level Washington Center
02:12PM 38.1169 -75.6075 199° South 391 450 40,000  Level Washington Center
02:13PM 38.0147 -75.6575 201° Southwest 391 450 40,000  Level Washington Center
02:14PM 37.9103 -75.7050 200° South 391 450 40,000  Level Washington Center
02:15PM 37.8039 -75.7494 198° South 396 456 40,000  Level Washington Center
02:16PM 37.6975 -75.7914 197° South 402 463 40,000  Level Washington Center
02:17PM 37.5889 -75.8408 200° South 407 468 40,000  Level Washington Center
02:18PM 37.4844 -75.8903 201° Southwest 407 468 40,000  Level Washington Center
02:19PM 37.3842 -75.9422 202° Southwest 407 468 40,000  Level Washington Center
02:20PM 37.2819 -75.9964 203° Southwest 402 463 40,000  Level Washington Center
02:21PM 37.1836 -76.0506 204° Southwest 395 455 40,000  Level Washington Center
02:22PM 37.0728 -76.1100 203° Southwest 395 455 40,000  Level Washington Center
02:23PM 36.9767 -76.1533 200° South 395 455 40,000  Level Washington Center
02:24PM 36.8764 -76.2072 203° Southwest 401 461 40,000  Level Washington Center
02:25PM 36.7842 -76.2739 210° Southwest 396 456 40,000  Level Washington Center
02:26PM 36.6814 -76.3481 210° Southwest 390 449 40,000  Level Washington Center
02:27PM 36.5894 -76.4069 207° Southwest 390 449 40,000  Level Washington Center
02:28PM 36.4928 -76.4756 210° Southwest 390 449 40,000  Level Washington Center
02:29PM 36.3986 -76.5364 207° Southwest 390 449 40,000  Level Washington Center
02:30PM 36.3042 -76.5997 208° Southwest 390 449 40,000  Level Washington Center
02:31PM 36.2117 -76.6603 208° Southwest 390 449 40,000  Level Washington Center
02:32PM 36.1194 -76.7208 208° Southwest 390 449 40,000  Level Washington Center
02:33PM 36.0292 -76.7811 208° Southwest 379 436 40,000  Level Washington Center
02:34PM 35.9389 -76.8414 208° Southwest 379 436 40,000  Level Washington Center
02:35PM 35.8464 -76.9014 208° Southwest 374 430 40,000  Level Washington Center
02:36PM 35.7519 -76.9511 203° Southwest 374 430 40,000  Level Washington Center
02:37PM 35.6472 -76.9928 198° South 380 437 40,000  Level Washington Center
02:38PM 35.5464 -77.0344 199° South 390 449 40,000  Level Washington Center
02:39PM 35.4417 -77.0783 199° South 395 455 40,000  Level Washington Center
02:40PM 35.3347 -77.1197 198° South 401 461 40,000  Level Washington Center
02:41PM 35.2297 -77.1636 199° South 406 467 40,000  Level Washington Center
02:42PM 35.1250 -77.2047 198° South 406 467 40,000  Level Washington Center
02:43PM 35.0181 -77.2456 197° South 406 467 40,000  Level Washington Center
02:44PM 34.9089 -77.2889 198° South 406 467 40,000  Level Washington Center
02:45PM 34.8122 -77.3300 199° South 406 467 40,000  Level Washington Center
02:46PM 34.7031 -77.3756 199° South 411 473 40,000  Level Washington Center
02:47PM 34.5919 -77.4186 198° South 411 473 40,000  Level Washington Center
02:48PM 34.4828 -77.4642 199° South 411 473 40,000  Level Washington Center
02:49PM 34.3650 -77.5092 198° South 411 473 40,000  Level Washington Center
02:50PM 34.2539 -77.5519 198° South 411 473 40,000  Level Washington Center
02:51PM 34.1447 -77.5969 199° South 411 473 40,000  Level Washington Center
02:52PM 34.0028 -77.6497 197° South 401 461 40,000  Level Jacksonville Center
02:53PM 33.8919 -77.6939 198° South 417 480 40,000  Level Jacksonville Center
02:54PM 33.7811 -77.7356 197° South 417 480 40,000  Level Jacksonville Center
02:55PM 33.6703 -77.7794 198° South 422 486 40,000  Level Jacksonville Center
02:56PM 33.5694 -77.8178 198° South 422 486 40,000  Level Jacksonville Center
02:57PM 33.4564 -77.8614 198° South 422 486 40,000  Level Jacksonville Center
02:58PM 33.3475 -77.9050 198° South 422 486 40,000  Level Jacksonville Center
02:59PM 33.2367 -77.9458 197° South 422 486 40,000  Level Jacksonville Center
03:00PM 33.1236 -77.9894 198° South 422 486 40,000  Level Jacksonville Center
03:01PM 33.0106 -78.0353 199° South 422 486 40,000  Level Jacksonville Center
03:02PM 32.8889 -78.0789 197° South 422 486 40,000  Level Jacksonville Center
03:03PM 32.7781 -78.1219 198° South 422 486 40,000  Level Jacksonville Center
03:04PM 32.6667 -78.1622 197° South 422 486 40,000  Level Jacksonville Center
03:05PM 32.5575 -78.2000 196° South 417 480 40,000  Level Jacksonville Center
03:06PM 32.4467 -78.2450 199° South 417 480 40,000  Level Jacksonville Center
03:07PM 32.3356 -78.2900 199° South 417 480 40,000  Level Jacksonville Center
03:08PM 32.2203 -78.3353 198° South 425 489 40,000  Level Jacksonville Center
03:09PM 32.1111 -78.3750 197° South 425 489 40,000  Level Jacksonville Center
03:10PM 32.0000 -78.4197 199° South 419 482 40,000  Level Jacksonville Center
03:11PM 31.8867 -78.4617 197° South 419 482 40,000 60 Level Jacksonville Center
03:12PM 31.7731 -78.4989 196° South 426 490 40,200 360 Climbing Jacksonville Center
03:13PM 31.6556 -78.5461 199° South 431 496 40,800 360 Climbing Jacksonville Center
03:14PM 31.5403 -78.5903 198° South 437 503 41,000 60 Climbing Jacksonville Center
03:15PM 31.4269 -78.6322 198° South 427 491 41,000  Level Jacksonville Center
03:16PM 31.3133 -78.6714 196° South 432 497 41,000  Level Jacksonville Center
03:17PM 31.1978 -78.7131 197° South 438 504 41,000  Level Jacksonville Center
03:18PM 31.0783 -78.7619 199° South 438 504 41,000  Level Jacksonville Center
03:19PM 30.9792 -78.7953 196° South 433 498 41,000  Level Jacksonville Center
03:20PM 30.8575 -78.8394 197° South 433 498 41,000  Level Jacksonville Center
03:21PM 30.7397 -78.8806 197° South 441 507 41,000  Level Jacksonville Center
03:23PM 30.5150 -78.9619 197° South 416 479 41,000  Level Miami Center
03:24PM 30.3892 -79.0028 196° South 446 513 41,000  Level Miami Center
03:25PM 30.2658 -79.0364 193° South 456 525 41,000  Level Miami Center
03:26PM 30.1464 -79.0675 193° South 456 525 41,000  Level Miami Center
03:27PM 30.0061 -79.1053 193° South 456 525 41,000  Level Miami Center
03:28PM 29.8889 -79.1436 196° South 451 519 41,000  Level Miami Center
03:29PM 29.7633 -79.1719 191° South 458 527 41,000  Level Miami Center
03:30PM 29.6397 -79.2075 194° South 463 533 41,000  Level Miami Center
03:31PM 29.5119 -79.2358 191° South 463 533 41,000  Level Miami Center
03:32PM 29.3864 -79.2686 193° South 469 540 41,000  Level Miami Center
03:33PM 29.2586 -79.2992 192° South 469 540 41,000  Level Miami Center
03:34PM 29.1350 -79.3272 191° South 469 540 41,000  Level Miami Center
03:35PM 29.0133 -79.3625 194° South 464 534 41,000  Level Miami Center
03:36PM 28.8856 -79.3906 191° South 464 534 41,000  Level Miami Center
03:37PM 28.7683 -79.4211 193° South 450 518 41,000  Level Miami Center
03:38PM 28.6425 -79.4511 192° South 450 518 41,000  Level Miami Center
03:39PM 28.5208 -79.4814 192° South 450 518 41,000  Level Miami Center
03:40PM 28.3992 -79.5117 192° South 450 518 41,000 -420 Level Miami Center
03:41PM 28.2797 -79.5419 193° South 450 518 40,200 -900 Descending Miami Center
03:42PM 28.1539 -79.5694 191° South 450 518 39,300 -960 Descending Miami Center
03:43PM 28.0281 -79.6017 193° South 450 518 38,300 -1,020 Descending Miami Center
03:44PM 27.9022 -79.6317 192° South 456 525 37,300 -2,040 Descending Miami Center
03:45PM 27.7911 -79.6594 192° South 456 525 34,300 -3,000 Descending Miami Center
03:46PM 27.6653 -79.6892 192° South 456 525 31,400 -2,340 Descending Miami Center
03:47PM 27.5272 -79.6975 183° South 456 525 29,700 -1,500 Descending Miami Center
03:48PM 27.4019 -79.6944 179° South 456 525 28,500 -1,800 Descending Miami Center
03:49PM 27.2831 -79.6939 180° South 450 518 26,100 -2,400 Descending Miami Center
03:50PM 27.1767 -79.6911 179° South 429 494 23,800 -2,280 Descending Miami Center
03:51PM 27.0639 -79.6886 179° South 411 473 21,600 -2,520 Descending Miami Center
03:52PM 26.9428 -79.6856 179° South 400 460 18,800 -2,820 Descending Miami Center
03:53PM 26.8322 -79.6853 180° South 400 460 16,000 -2,640 Descending Miami Center
03:54PM 26.7486 -79.6903 183° South 394 453 14,200 -2,400 Descending Miami Center
03:54PM 26.7211 -79.6964 191° South 406 467 13,600 -2,400 Descending Miami Center
03:55PM 26.6219 -79.7475 205° Southwest 361 415 11,100 -2,160 Descending Miami Center
03:56PM 26.5400 -79.7828 201° Southwest 360 414 9,300 -1,500 Descending Miami Center
03:57PM 26.4617 -79.8225 204° Southwest 323 372 8,200 -900 Descending Miami Center
03:58PM 26.3897 -79.8786 215° Southwest 273 314 7,400 -1,020 Descending Miami Center
03:59PM 26.3633 -79.9358 243° Southwest 273 314 6,200 -1,740 Descending Miami Center
04:00PM 26.3303 -80.0186 246° West 273 314 4,200 -1,140 Descending Miami Center
04:01PM 26.3039 -80.0850 246° West 273 314 4,000 -120 Descending Miami Center
04:02PM 26.2750 -80.1536 245° Southwest 243 280 4,000  Level Miami Center
04:03PM 26.2550 -80.2089 248° West 219 252 4,000  Level Miami Center
04:04PM 26.2036 -80.2675 226° Southwest 205 236 4,000  Level Miami Center
04:05PM 26.1422 -80.2981 204° Southwest 213 245 4,000 -360 Level Miami Center
04:06PM 26.1042 -80.3156 202° Southwest 199 229 3,400 -1,020 Descending Miami Center
04:07PM 26.0761 -80.2686 124° Southeast 158 182 2,000 -1,080 Descending Miami Center
04:08PM 26.0750 -80.2292 92° East 146 168 1,200 -900 Descending Miami Center
04:09PM 26.0739 -80.1853 92° East 142 163 400 -840 Descending Miami Center
04:11PM 26.0667 -80.1500 103° East  Level FlightAware Approximate